createdAt,value
2022-12-26T00:00:00.049Z,11.45
2022-12-26T00:02:26.493Z,11.70
2022-12-26T00:04:53.943Z,11.50
2022-12-26T00:07:20.723Z,11.55
2022-12-26T00:09:47.234Z,11.45
2022-12-26T00:12:13.800Z,11.38
2022-12-26T00:14:40.392Z,11.60
2022-12-26T00:17:07.615Z,11.77
2022-12-26T00:19:34.140Z,11.38
2022-12-26T00:22:00.610Z,12.77
2022-12-26T00:24:27.066Z,10.80
2022-12-26T00:26:53.713Z,11.35
2022-12-26T00:29:20.119Z,11.07
2022-12-26T00:31:46.912Z,12.15
2022-12-26T00:34:13.589Z,10.63
2022-12-26T00:36:40.154Z,11.07
2022-12-26T00:39:06.827Z,11.57
2022-12-26T00:41:33.796Z,11.60
2022-12-26T00:44:00.370Z,10.27
2022-12-26T00:46:27.604Z,10.48
2022-12-26T00:48:54.392Z,10.77
2022-12-26T00:51:21.269Z,11.20
2022-12-26T00:53:47.913Z,10.02
2022-12-26T00:56:15.580Z,9.50
2022-12-26T00:58:42.143Z,10.85
2022-12-26T01:01:21.219Z,9.32
2022-12-26T01:03:49.088Z,10.02
2022-12-26T01:06:17.074Z,10.40
2022-12-26T01:08:44.212Z,10.20
2022-12-26T01:11:13.584Z,9.60
2022-12-26T01:13:40.293Z,9.75
2022-12-26T01:16:07.954Z,9.13
2022-12-26T01:18:34.981Z,8.93
2022-12-26T01:21:04.306Z,8.95
2022-12-26T01:23:30.978Z,8.88
2022-12-26T01:26:14.921Z,8.65
2022-12-26T01:28:43.849Z,8.88
2022-12-26T01:31:10.343Z,8.63
2022-12-26T01:33:36.956Z,8.80
2022-12-26T01:36:03.553Z,8.80
2022-12-26T01:38:30.151Z,8.38
2022-12-26T01:41:15.259Z,8.60
2022-12-26T01:44:02.128Z,8.00
2022-12-26T01:46:37.567Z,8.93
2022-12-26T01:49:18.047Z,8.88
2022-12-26T01:51:50.142Z,8.90
2022-12-26T01:54:39.735Z,7.80
2022-12-26T01:57:06.779Z,8.35
2022-12-26T01:59:37.363Z,8.38
2022-12-26T02:02:05.084Z,8.82
2022-12-26T02:04:57.012Z,8.23
2022-12-26T02:07:24.353Z,9.00
2022-12-26T02:09:50.974Z,8.18
2022-12-26T02:12:36.437Z,8.68
2022-12-26T02:15:11.461Z,8.55
2022-12-26T02:17:39.158Z,8.35
2022-12-26T02:20:26.029Z,8.02
2022-12-26T02:23:01.489Z,8.80
2022-12-26T02:25:57.402Z,7.72
2022-12-26T02:28:53.111Z,7.75
2022-12-26T02:31:35.646Z,8.40
2022-12-26T02:34:04.762Z,8.25
2022-12-26T02:37:04.040Z,7.80
2022-12-26T02:39:48.689Z,8.35
2022-12-26T02:42:30.305Z,8.15
2022-12-26T02:45:31.406Z,8.23
2022-12-26T02:48:16.052Z,8.80
2022-12-26T02:51:20.037Z,7.65
2022-12-26T02:54:26.989Z,8.27
2022-12-26T02:57:18.331Z,8.15
2022-12-26T03:00:22.939Z,8.45
2022-12-26T03:03:37.469Z,7.90
2022-12-26T03:06:31.833Z,7.93
2022-12-26T03:09:31.248Z,8.07
2022-12-26T03:12:21.770Z,7.80
2022-12-26T03:14:53.795Z,10.93
2022-12-26T03:17:39.764Z,8.57
2022-12-26T03:20:15.499Z,8.00
2022-12-26T03:22:46.723Z,7.95
2022-12-26T03:25:37.845Z,8.23
2022-12-26T03:28:04.405Z,7.55
2022-12-26T03:30:49.544Z,7.82
2022-12-26T03:33:59.938Z,7.43
2022-12-26T03:36:29.220Z,8.15
2022-12-26T03:39:13.760Z,7.47
2022-12-26T03:42:08.459Z,7.88
2022-12-26T03:45:22.052Z,7.80
2022-12-26T03:48:19.966Z,7.75
2022-12-26T03:51:14.960Z,7.72
2022-12-26T03:54:16.197Z,7.25
2022-12-26T03:57:12.700Z,7.33
2022-12-26T04:00:09.628Z,6.50
2022-12-26T04:02:58.090Z,6.88
2022-12-26T04:05:43.763Z,6.82
2022-12-26T04:08:38.542Z,7.75
2022-12-26T04:11:24.866Z,6.85
2022-12-26T04:14:21.901Z,6.32
2022-12-26T04:17:24.008Z,6.95
2022-12-26T04:22:56.471Z,6.00
2022-12-26T04:25:50.130Z,6.85
2022-12-26T04:28:36.587Z,6.35
2022-12-26T04:31:45.769Z,5.75
2022-12-26T04:34:40.813Z,6.15
2022-12-26T04:37:34.389Z,6.05
2022-12-26T04:40:21.392Z,6.80
2022-12-26T04:43:47.297Z,5.75
2022-12-26T04:45:54.850Z,5.95
2022-12-26T04:48:39.913Z,6.20
2022-12-26T04:51:06.385Z,5.95
2022-12-26T04:53:32.983Z,6.13
2022-12-26T04:55:59.460Z,6.50
2022-12-26T04:58:28.531Z,6.45
2022-12-26T05:01:15.060Z,5.68
2022-12-26T05:04:00.667Z,6.03
2022-12-26T05:06:53.407Z,5.78
2022-12-26T05:09:35.595Z,6.07
2022-12-26T05:12:04.429Z,6.25
2022-12-26T05:14:31.648Z,5.60
2022-12-26T05:17:17.846Z,5.55
2022-12-26T05:20:03.107Z,6.05
2022-12-26T05:22:51.170Z,6.47
2022-12-26T05:25:41.726Z,5.35
2022-12-26T05:28:31.846Z,6.38
2022-12-26T05:30:58.761Z,5.85
2022-12-26T05:33:43.896Z,6.45
2022-12-26T05:36:11.304Z,5.47
2022-12-26T05:38:37.751Z,5.78
2022-12-26T05:41:04.949Z,5.97
2022-12-26T05:43:31.886Z,6.18
2022-12-26T05:45:58.631Z,6.28
2022-12-26T05:48:25.122Z,5.45
2022-12-26T05:50:51.626Z,5.22
2022-12-26T05:53:18.182Z,5.32
2022-12-26T05:55:44.838Z,5.13
2022-12-26T05:58:11.323Z,5.57
2022-12-26T06:00:37.770Z,5.72
2022-12-26T06:03:04.417Z,5.18
2022-12-26T06:05:30.987Z,5.22
2022-12-26T06:07:57.402Z,5.00
2022-12-26T06:10:26.251Z,5.28
2022-12-26T06:12:53.352Z,4.93
2022-12-26T06:15:19.778Z,5.03
2022-12-26T06:17:46.202Z,5.20
2022-12-26T06:20:12.849Z,4.22
2022-12-26T06:22:39.643Z,4.43
2022-12-26T06:25:06.865Z,5.18
2022-12-26T06:27:33.402Z,4.90
2022-12-26T06:29:59.892Z,3.90
2022-12-26T06:32:26.382Z,4.45
2022-12-26T06:34:52.856Z,4.82
2022-12-26T06:37:19.409Z,5.47
2022-12-26T06:39:46.568Z,4.38
2022-12-26T06:42:13.093Z,5.00
2022-12-26T06:44:39.507Z,4.97
2022-12-26T06:47:06.014Z,5.22
2022-12-26T06:49:33.384Z,5.07
2022-12-26T06:51:59.993Z,5.15
2022-12-26T06:54:26.423Z,4.80
2022-12-26T06:56:52.969Z,4.53
2022-12-26T06:59:19.526Z,4.95
2022-12-26T07:01:46.144Z,5.00
2022-12-26T07:04:13.281Z,4.80
2022-12-26T07:06:39.795Z,4.55
2022-12-26T07:09:14.774Z,4.75
2022-12-26T07:11:44.047Z,5.05
2022-12-26T07:14:10.635Z,4.90
2022-12-26T07:16:39.042Z,4.82
2022-12-26T07:19:06.492Z,5.18
2022-12-26T07:21:39.775Z,4.93
2022-12-26T07:24:08.906Z,4.43
2022-12-26T07:26:35.586Z,4.70
2022-12-26T07:29:02.122Z,5.03
2022-12-26T07:31:28.921Z,5.20
2022-12-26T07:33:56.628Z,4.68
2022-12-26T07:36:25.092Z,4.60
2022-12-26T07:38:52.117Z,5.03
2022-12-26T07:41:37.562Z,5.00
2022-12-26T07:44:05.968Z,4.68
2022-12-26T07:46:33.054Z,4.60
2022-12-26T07:48:59.664Z,5.15
2022-12-26T07:51:27.032Z,4.65
2022-12-26T07:53:53.532Z,4.75
2022-12-26T07:56:20.043Z,5.10
2022-12-26T07:58:50.417Z,4.57
2022-12-26T08:01:17.606Z,4.80
2022-12-26T08:03:44.338Z,4.50
2022-12-26T08:06:11.851Z,5.00
2022-12-26T08:08:38.864Z,4.30
2022-12-26T08:11:07.555Z,4.10
2022-12-26T08:13:35.231Z,4.35
2022-12-26T08:16:07.047Z,4.63
2022-12-26T08:18:34.411Z,4.00
2022-12-26T08:21:00.995Z,4.07
2022-12-26T08:23:27.612Z,3.85
2022-12-26T08:25:54.122Z,4.60
2022-12-26T08:28:20.788Z,3.70
2022-12-26T08:30:47.515Z,3.70
2022-12-26T08:33:14.132Z,3.50
2022-12-26T08:35:40.697Z,3.55
2022-12-26T08:38:08.057Z,4.00
2022-12-26T08:40:43.510Z,3.45
2022-12-26T08:46:08.938Z,3.30
2022-12-26T08:48:36.519Z,3.72
2022-12-26T08:51:06.903Z,3.90
2022-12-26T08:53:35.801Z,4.10
2022-12-26T08:56:05.148Z,4.38
2022-12-26T08:58:32.358Z,4.22
2022-12-26T09:01:12.645Z,4.70
2022-12-26T09:03:40.023Z,5.00
2022-12-26T09:06:06.978Z,5.45
2022-12-26T09:08:37.301Z,4.55
2022-12-26T09:11:15.364Z,4.85
2022-12-26T09:13:43.199Z,5.10
2022-12-26T09:16:22.460Z,5.65
2022-12-26T09:18:53.024Z,4.78
2022-12-26T09:21:19.469Z,5.60
2022-12-26T09:23:45.937Z,4.95
2022-12-26T09:26:20.103Z,4.82
2022-12-26T09:28:47.379Z,5.65
2022-12-26T09:31:17.955Z,5.47
2022-12-26T09:33:45.063Z,5.10
2022-12-26T09:36:15.242Z,4.50
2022-12-26T09:38:42.937Z,4.65
2022-12-26T09:41:39.301Z,4.32
2022-12-26T09:44:23.457Z,5.10
2022-12-26T09:47:26.872Z,4.57
2022-12-26T09:50:14.504Z,4.72
2022-12-26T09:52:43.906Z,5.32
2022-12-26T09:55:34.626Z,4.65
2022-12-26T09:58:27.130Z,4.85
2022-12-26T10:01:09.940Z,5.10
2022-12-26T10:03:41.303Z,4.50
2022-12-26T10:06:19.650Z,7.65
2022-12-26T10:09:15.736Z,5.20
2022-12-26T10:11:58.227Z,4.55
2022-12-26T10:14:43.468Z,4.60
2022-12-26T10:17:40.594Z,4.97
2022-12-26T10:20:07.991Z,3.55
2022-12-26T10:23:08.255Z,4.68
2022-12-26T10:25:48.096Z,4.38
2022-12-26T10:28:33.387Z,4.63
2022-12-26T10:31:05.748Z,3.60
2022-12-26T10:33:53.309Z,3.22
2022-12-26T10:36:35.285Z,3.78
2022-12-26T10:39:05.874Z,3.65
2022-12-26T10:41:45.170Z,3.80
2022-12-26T10:44:13.002Z,3.30
2022-12-26T10:47:04.147Z,3.28
2022-12-26T10:49:30.631Z,4.10
2022-12-26T10:52:00.603Z,4.07
2022-12-26T10:54:29.201Z,4.78
2022-12-26T10:56:58.162Z,3.92
2022-12-26T10:59:38.636Z,3.20
2022-12-26T11:02:16.009Z,3.55
2022-12-26T11:05:27.377Z,3.00
2022-12-26T11:07:54.877Z,2.90
2022-12-26T11:10:25.507Z,3.58
2022-12-26T11:12:55.098Z,3.80
2022-12-26T11:15:33.945Z,3.22
2022-12-26T11:18:16.117Z,2.63
2022-12-26T11:20:43.467Z,4.35
2022-12-26T11:23:21.730Z,3.78
2022-12-26T11:25:51.385Z,2.72
2022-12-26T11:28:27.845Z,3.45
2022-12-26T11:30:54.945Z,3.30
2022-12-26T11:33:28.374Z,3.75
2022-12-26T11:35:59.627Z,2.88
2022-12-26T11:38:42.735Z,2.75
2022-12-26T11:41:36.539Z,2.97
2022-12-26T11:44:12.310Z,3.30
2022-12-26T11:46:43.928Z,2.85
2022-12-26T11:51:47.382Z,2.83
2022-12-26T11:54:20.892Z,3.10
2022-12-26T11:56:48.513Z,3.20
2022-12-26T11:59:21.203Z,3.40
2022-12-26T12:02:09.786Z,3.50
2022-12-26T12:04:36.269Z,3.65
2022-12-26T12:07:13.804Z,3.90
2022-12-26T12:10:03.199Z,4.20
2022-12-26T12:12:47.369Z,4.07
2022-12-26T12:15:28.521Z,4.00
2022-12-26T12:18:13.215Z,4.35
2022-12-26T12:20:56.721Z,4.28
2022-12-26T12:23:53.377Z,3.95
2022-12-26T12:27:04.601Z,4.10
2022-12-26T12:29:56.636Z,4.00
2022-12-26T12:32:40.202Z,4.35
2022-12-26T12:35:18.659Z,3.78
2022-12-26T12:38:18.432Z,4.05
2022-12-26T12:41:16.612Z,3.38
2022-12-26T12:43:45.799Z,3.80
2022-12-26T12:46:40.346Z,3.17
2022-12-26T12:49:45.091Z,3.42
2022-12-26T12:52:14.500Z,3.83
2022-12-26T12:55:23.866Z,4.63
2022-12-26T12:57:57.994Z,5.10
2022-12-26T13:00:29.015Z,4.30
2022-12-26T13:03:34.665Z,2.42
2022-12-26T13:06:10.143Z,3.92
2022-12-26T13:09:05.036Z,4.90
2022-12-26T13:11:43.514Z,3.90
2022-12-26T13:14:30.855Z,3.90
2022-12-26T13:17:04.713Z,4.30
2022-12-26T13:19:40.542Z,4.03
2022-12-26T13:22:15.362Z,3.72
2022-12-26T13:24:46.095Z,4.00
2022-12-26T13:27:21.341Z,3.30
2022-12-26T13:29:49.206Z,4.70
2022-12-26T13:32:27.945Z,4.40
2022-12-26T13:34:56.859Z,4.32
2022-12-26T13:37:35.188Z,4.18
2022-12-26T13:40:05.921Z,4.90
2022-12-26T13:42:56.070Z,4.33
2022-12-26T13:45:38.027Z,3.92
2022-12-26T13:48:16.484Z,4.40
2022-12-26T13:50:55.326Z,4.65
2022-12-26T13:53:25.742Z,4.18
2022-12-26T13:55:57.754Z,3.78
2022-12-26T13:58:53.313Z,4.60
2022-12-26T14:02:02.886Z,4.55
2022-12-26T14:04:35.519Z,5.70
2022-12-26T14:07:11.269Z,4.43
2022-12-26T14:10:18.315Z,6.10
2022-12-26T14:13:02.010Z,6.65
2022-12-26T14:16:13.165Z,5.90
2022-12-26T14:18:54.542Z,4.97
2022-12-26T14:21:35.811Z,5.47
2022-12-26T14:24:21.180Z,5.00
2022-12-26T14:27:25.363Z,5.75
2022-12-26T14:30:01.145Z,4.25
2022-12-26T14:32:47.202Z,5.00
2022-12-26T14:35:37.176Z,5.00
2022-12-26T14:38:25.518Z,4.38
2022-12-26T14:41:02.659Z,4.20
2022-12-26T14:43:33.893Z,4.10
2022-12-26T14:46:01.732Z,4.32
2022-12-26T14:48:28.431Z,3.58
2022-12-26T14:51:16.439Z,4.28
2022-12-26T14:53:45.891Z,3.80
2022-12-26T14:56:18.294Z,3.70
2022-12-26T14:59:14.325Z,3.13
2022-12-26T15:01:40.813Z,3.83
2022-12-26T15:04:20.400Z,3.80
2022-12-26T15:07:24.090Z,3.58
2022-12-26T15:09:56.772Z,4.13
2022-12-26T15:13:00.688Z,3.88
2022-12-26T15:16:12.113Z,4.13
2022-12-26T15:18:57.161Z,5.22
2022-12-26T15:21:38.126Z,5.65
2022-12-26T15:24:52.795Z,5.68
2022-12-26T15:27:34.972Z,6.38
2022-12-26T15:30:16.424Z,5.13
2022-12-26T15:32:54.395Z,7.35
2022-12-26T15:35:23.653Z,6.57
2022-12-26T15:38:27.246Z,5.85
2022-12-26T15:41:29.064Z,5.97
2022-12-26T15:44:21.644Z,5.47
2022-12-26T15:47:18.628Z,5.50
2022-12-26T15:49:47.938Z,5.80
2022-12-26T15:52:20.237Z,4.88
2022-12-26T15:55:05.818Z,5.78
2022-12-26T15:58:07.026Z,5.57
2022-12-26T16:00:38.343Z,5.53
2022-12-26T16:03:23.607Z,5.22
2022-12-26T16:06:00.108Z,4.82
2022-12-26T16:08:47.985Z,4.85
2022-12-26T16:11:19.478Z,4.78
2022-12-26T16:13:54.689Z,4.82
2022-12-26T16:16:31.775Z,4.38
2022-12-26T16:19:02.440Z,4.07
2022-12-26T16:21:47.998Z,4.50
2022-12-26T16:24:22.050Z,4.07
2022-12-26T16:26:48.686Z,3.78
2022-12-26T16:29:20.229Z,3.72
2022-12-26T16:31:47.477Z,2.88
2022-12-26T16:34:20.177Z,3.30
2022-12-26T16:36:50.050Z,3.38
2022-12-26T16:39:23.333Z,3.30
2022-12-26T16:42:05.657Z,3.00
2022-12-26T16:44:40.847Z,3.00
2022-12-26T16:47:12.074Z,2.92
2022-12-26T16:49:41.620Z,2.80
2022-12-26T16:52:34.136Z,2.38
2022-12-26T16:55:22.615Z,2.25
2022-12-26T16:57:51.557Z,2.22
2022-12-26T17:00:20.112Z,2.28
2022-12-26T17:02:49.658Z,2.38
2022-12-26T17:05:27.048Z,2.20
2022-12-26T17:07:55.788Z,1.80
2022-12-26T17:10:28.675Z,1.70
2022-12-26T17:13:00.198Z,2.15
2022-12-26T17:15:31.040Z,1.85
2022-12-26T17:18:00.313Z,1.80
2022-12-26T17:20:34.048Z,1.50
2022-12-26T17:23:34.339Z,1.30
2022-12-26T17:26:24.660Z,1.45
2022-12-26T17:28:51.242Z,1.40
2022-12-26T17:31:30.342Z,1.58
2022-12-26T17:33:57.683Z,1.45
2022-12-26T17:37:08.751Z,1.67
2022-12-26T17:39:24.435Z,1.20
2022-12-26T17:41:54.420Z,1.33
2022-12-26T17:44:32.845Z,1.42
2022-12-26T17:47:02.706Z,1.20
2022-12-26T17:49:29.246Z,1.13
2022-12-26T17:52:01.578Z,1.50
2022-12-26T17:54:28.514Z,0.98
2022-12-26T17:56:55.020Z,1.40
2022-12-26T17:59:22.593Z,1.38
2022-12-26T18:01:49.409Z,1.35
2022-12-26T18:04:15.951Z,1.23
2022-12-26T18:06:42.506Z,1.30
2022-12-26T18:09:28.489Z,1.20
2022-12-26T18:11:55.418Z,1.27
2022-12-26T18:14:22.487Z,1.40
2022-12-26T18:16:51.301Z,1.67
2022-12-26T18:19:19.367Z,1.30
2022-12-26T18:21:46.208Z,1.38
2022-12-26T18:24:13.315Z,1.95
2022-12-26T18:26:40.474Z,1.55
2022-12-26T18:29:07.200Z,1.77
2022-12-26T18:31:33.645Z,1.42
2022-12-26T18:34:00.148Z,1.83
2022-12-26T18:36:33.943Z,1.73
2022-12-26T18:39:00.372Z,1.50
2022-12-26T18:41:27.176Z,1.48
2022-12-26T18:43:53.904Z,1.90
2022-12-26T18:46:23.225Z,1.52
2022-12-26T18:48:51.064Z,1.65
2022-12-26T18:51:17.574Z,1.83
2022-12-26T18:53:44.188Z,1.48
2022-12-26T18:56:16.695Z,1.48
2022-12-26T18:58:43.352Z,1.58
2022-12-26T19:01:13.681Z,1.63
2022-12-26T19:03:41.226Z,1.30
2022-12-26T19:06:13.571Z,1.30
2022-12-26T19:08:40.097Z,1.67
2022-12-26T19:11:06.560Z,1.80
2022-12-26T19:13:33.146Z,1.77
2022-12-26T19:16:00.210Z,1.73
2022-12-26T19:18:26.731Z,1.60
2022-12-26T19:20:53.290Z,1.50
2022-12-26T19:23:19.771Z,1.48
2022-12-26T19:25:46.228Z,1.40
2022-12-26T19:28:12.730Z,0.98
2022-12-26T19:30:39.426Z,1.70
2022-12-26T19:33:06.248Z,1.20
2022-12-26T19:35:32.909Z,1.85
2022-12-26T19:37:59.394Z,1.25
2022-12-26T19:40:25.938Z,1.10
2022-12-26T19:42:53.093Z,1.70
2022-12-26T19:45:19.730Z,1.48
2022-12-26T19:47:46.270Z,1.27
2022-12-26T19:50:12.738Z,1.45
2022-12-26T19:52:40.684Z,1.15
2022-12-26T19:55:08.536Z,1.08
2022-12-26T19:57:35.099Z,1.52
2022-12-26T20:00:01.639Z,0.80
2022-12-26T20:02:28.232Z,1.20
2022-12-26T20:04:54.850Z,1.10
2022-12-26T20:07:21.388Z,1.25
2022-12-26T20:09:48.035Z,1.63
2022-12-26T20:12:14.501Z,1.15
2022-12-26T20:14:41.123Z,1.73
2022-12-26T20:17:09.432Z,1.42
2022-12-26T20:19:36.691Z,1.33
2022-12-26T20:22:04.186Z,1.33
2022-12-26T20:24:30.813Z,1.30
2022-12-26T20:26:57.358Z,1.70
2022-12-26T20:29:23.829Z,1.15
2022-12-26T20:31:50.384Z,1.27
2022-12-26T20:34:17.474Z,1.60
2022-12-26T20:36:43.954Z,1.48
2022-12-26T20:39:13.717Z,1.50
2022-12-26T20:41:40.530Z,1.55
2022-12-26T20:44:07.063Z,1.52
2022-12-26T20:46:35.091Z,2.22
2022-12-26T20:49:04.433Z,1.63
2022-12-26T20:51:37.305Z,1.95
2022-12-26T20:54:07.099Z,1.25
2022-12-26T20:56:34.837Z,1.85
2022-12-26T20:59:01.331Z,1.60
2022-12-26T21:01:28.743Z,1.75
2022-12-26T21:03:56.683Z,1.77
2022-12-26T21:06:29.675Z,0.85
2022-12-26T21:08:57.606Z,2.22
2022-12-26T21:11:36.096Z,1.52
2022-12-26T21:14:05.701Z,1.13
2022-12-26T21:16:41.398Z,1.67
2022-12-26T21:19:14.577Z,1.52
2022-12-26T21:21:43.911Z,2.03
2022-12-26T21:24:16.489Z,2.03
2022-12-26T21:26:44.205Z,1.35
2022-12-26T21:29:16.314Z,1.70
2022-12-26T21:31:43.181Z,1.85
2022-12-26T21:34:12.732Z,1.65
2022-12-26T21:36:39.499Z,2.17
2022-12-26T21:39:08.670Z,1.60
2022-12-26T21:41:37.347Z,1.90
2022-12-26T21:44:03.993Z,2.10
2022-12-26T21:46:30.639Z,2.30
2022-12-26T21:48:57.119Z,2.30
2022-12-26T21:51:28.781Z,2.90
2022-12-26T21:56:41.564Z,3.00
2022-12-26T21:59:28.159Z,3.75
2022-12-26T22:01:54.726Z,1.92
2022-12-26T22:04:23.438Z,2.33
2022-12-26T22:06:51.017Z,2.40
2022-12-26T22:09:17.787Z,2.22
2022-12-26T22:12:03.752Z,2.55
2022-12-26T22:14:30.218Z,2.35
2022-12-26T22:16:57.772Z,2.22
2022-12-26T22:19:25.437Z,1.60
2022-12-26T22:21:53.229Z,2.88
2022-12-26T22:24:21.698Z,2.00
2022-12-26T22:26:48.218Z,2.20
2022-12-26T22:29:14.729Z,2.53
2022-12-26T22:31:41.141Z,2.05
2022-12-26T22:34:12.280Z,2.22
2022-12-26T22:36:39.407Z,1.80
2022-12-26T22:39:06.316Z,2.30
2022-12-26T22:41:34.283Z,2.50
2022-12-26T22:44:00.740Z,1.88
2022-12-26T22:46:27.338Z,2.00
2022-12-26T22:48:53.976Z,1.70
2022-12-26T22:51:24.930Z,3.33
2022-12-26T22:53:59.570Z,2.35
2022-12-26T22:56:26.247Z,2.15
2022-12-26T22:58:54.422Z,2.00
2022-12-26T23:01:22.101Z,1.83
2022-12-26T23:03:49.240Z,1.95
2022-12-26T23:06:23.199Z,2.97
2022-12-26T23:08:52.865Z,2.30
2022-12-26T23:11:19.978Z,2.15
2022-12-26T23:13:47.061Z,2.45
2022-12-26T23:16:23.486Z,2.05
2022-12-26T23:19:33.055Z,2.33
2022-12-26T23:22:01.409Z,2.15
2022-12-26T23:24:30.027Z,2.30
2022-12-26T23:27:19.689Z,2.30
2022-12-26T23:30:05.598Z,2.38
2022-12-26T23:32:33.022Z,1.77
2022-12-26T23:34:59.596Z,1.75
2022-12-26T23:37:26.129Z,2.80
2022-12-26T23:39:52.655Z,2.35
2022-12-26T23:42:19.143Z,2.10
2022-12-26T23:44:45.575Z,3.00
2022-12-26T23:47:12.246Z,2.05
2022-12-26T23:49:38.728Z,2.70
2022-12-26T23:52:05.367Z,2.75
2022-12-26T23:54:31.882Z,2.15
2022-12-26T23:56:58.365Z,2.03
2022-12-26T23:59:24.868Z,2.35
